Huntington Center, Vermont
Current Conditions -  °F | °C
As of 2:54 AM on Saturday 20 Dec 2014 (Local Time) from KBTV Reporting Station
Clear Clear  
Wind Chill: 15°   Ceiling: Unl
Heat Index: 15°   Visibility: 10mi
Dew Point: 10°   Wind: 3mph
Humidity: 80%   Direction: 50°NE
Pressure: 30.26"   Gusts: NA
Location:  44.3099°N, 72.982°W
Report Text: KBTV 200754Z 05003KT 10SM CLR M09/M12 A3026 RMK AO2 SLP253 T10941122
Loading
Personal Weather Stations






























Interactive Weather Map New forecast layout! Learn more

10-Day Weather Forecast

Advertisements
Track Severe Weather on mobile